Archival Weather

Snohomish County (Paine Fld)

Everett, Washington (KPAE)

Report from: Thursday, November 16, 2023 7:53 AM PST
Current time: Monday, June 17, 2024 1:22 AM PDT

Current weather – Weather history – Daily summaries
Weather forecast

Temperature2.2°C (36.0°F)
Wind chill0.7°C (33.2°F)
Dew point0.6°C (33.1°F)
Winds 3 kts (1.5 m/s, 3.5 mph) North (360°)
Visibility10 mi. (16.1 km)
Clouds Scattered clouds 200 ft. (61 m)
Altimeter30.12 in.Hg (1020 mB)
Relative humidity89 %
Density altitude-1,701 ft. (-518 m)
Sea-level pressure102.0 kPa (1020 mB, 30.13 in.Hg)
Remarks Automated weather observing station with precipitation discriminator
Flight conditions Visual Meteorological Conditions
Raw dataKPAE 161553Z 36003KT 10SM SCT002 02/01 A3012 RMK AO2 SLP203 T00220006
An error has occurred. This application may no longer respond until reloaded. Reload 🗙